createdAt,value
2022-12-14T00:01:45.093Z,17.30
2022-12-14T00:04:16.439Z,17.98
2022-12-14T00:06:43.712Z,18.60
2022-12-14T00:09:11.273Z,19.10
2022-12-14T00:11:38.915Z,18.40
2022-12-14T00:14:07.007Z,17.58
2022-12-14T00:16:35.287Z,18.55
2022-12-14T00:19:03.200Z,18.30
2022-12-14T00:21:30.426Z,18.20
2022-12-14T00:23:59.404Z,18.00
2022-12-14T00:26:30.123Z,18.48
2022-12-14T00:29:00.386Z,17.60
2022-12-14T00:31:28.200Z,18.35
2022-12-14T00:33:55.652Z,18.38
2022-12-14T00:36:23.404Z,18.05
2022-12-14T00:38:51.876Z,18.42
2022-12-14T00:41:19.391Z,17.88
2022-12-14T00:43:49.300Z,17.85
2022-12-14T00:46:18.175Z,17.15
2022-12-14T00:48:45.773Z,18.15
2022-12-14T00:51:15.071Z,17.52
2022-12-14T00:53:44.278Z,18.17
2022-12-14T00:56:11.834Z,17.92
2022-12-14T00:58:39.134Z,17.60
2022-12-14T01:01:09.771Z,17.77
2022-12-14T01:03:37.115Z,17.92
2022-12-14T01:06:04.521Z,18.27
2022-12-14T01:08:35.948Z,17.45
2022-12-14T01:11:05.763Z,17.05
2022-12-14T01:13:33.776Z,17.40
2022-12-14T01:16:06.783Z,17.63
2022-12-14T01:18:35.856Z,17.60
2022-12-14T01:21:09.535Z,17.50
2022-12-14T01:23:37.586Z,18.50
2022-12-14T01:26:04.864Z,17.90
2022-12-14T01:28:32.249Z,17.92
2022-12-14T01:30:59.542Z,18.45
2022-12-14T01:33:27.008Z,17.23
2022-12-14T01:35:55.496Z,17.48
2022-12-14T01:38:22.934Z,17.45
2022-12-14T01:40:50.216Z,18.05
2022-12-14T01:43:17.469Z,16.70
2022-12-14T01:45:44.672Z,17.10
2022-12-14T01:48:13.440Z,16.70
2022-12-14T01:50:43.692Z,17.42
2022-12-14T01:53:15.916Z,16.60
2022-12-14T01:55:48.808Z,17.42
2022-12-14T01:58:24.006Z,17.92
2022-12-14T02:00:56.334Z,18.58
2022-12-14T02:03:26.643Z,19.75
2022-12-14T02:05:58.200Z,19.50
2022-12-14T02:08:27.292Z,21.05
2022-12-14T02:10:55.770Z,19.92
2022-12-14T02:13:27.268Z,19.83
2022-12-14T02:15:54.919Z,20.92
2022-12-14T02:18:24.554Z,20.95
2022-12-14T02:21:01.485Z,21.17
2022-12-14T02:23:42.909Z,21.20
2022-12-14T02:26:31.163Z,20.92
2022-12-14T02:29:16.890Z,21.15
2022-12-14T02:31:47.038Z,21.08
2022-12-14T02:34:51.711Z,20.67
2022-12-14T02:37:24.936Z,22.02
2022-12-14T02:40:14.471Z,22.00
2022-12-14T02:42:56.632Z,21.05
2022-12-14T02:45:42.481Z,21.05
2022-12-14T02:48:16.758Z,21.08
2022-12-14T02:50:51.772Z,21.08
2022-12-14T02:53:26.699Z,22.00
2022-12-14T02:55:54.942Z,21.83
2022-12-14T02:58:41.445Z,22.17
2022-12-14T03:01:12.728Z,21.63
2022-12-14T03:03:40.974Z,22.30
2022-12-14T03:06:26.225Z,20.80
2022-12-14T03:09:16.858Z,20.10
2022-12-14T03:12:07.612Z,20.23
2022-12-14T03:14:40.013Z,20.83
2022-12-14T03:17:19.276Z,20.77
2022-12-14T03:20:07.142Z,20.15
2022-12-14T03:22:49.535Z,21.52
2022-12-14T03:25:22.442Z,21.23
2022-12-14T03:27:53.704Z,20.75
2022-12-14T03:30:43.841Z,21.27
2022-12-14T03:33:13.790Z,21.10
2022-12-14T03:35:50.693Z,22.52
2022-12-14T03:38:21.426Z,20.98
2022-12-14T03:40:53.504Z,22.20
2022-12-14T03:43:42.926Z,20.35
2022-12-14T03:46:41.832Z,20.60
2022-12-14T03:49:17.303Z,21.85
2022-12-14T03:52:00.384Z,22.05
2022-12-14T03:54:33.793Z,20.75
2022-12-14T03:57:15.049Z,21.70
2022-12-14T03:59:54.246Z,20.92
2022-12-14T04:02:36.311Z,21.92
2022-12-14T04:05:12.541Z,20.75
2022-12-14T04:07:46.109Z,20.98
2022-12-14T04:10:39.248Z,21.02
2022-12-14T04:13:29.065Z,22.17
2022-12-14T04:16:18.782Z,21.15
2022-12-14T04:19:00.314Z,21.05
2022-12-14T04:21:38.237Z,21.48
2022-12-14T04:24:37.703Z,21.55
2022-12-14T04:27:30.147Z,22.38
2022-12-14T04:30:00.421Z,21.88
2022-12-14T04:32:53.004Z,20.85
2022-12-14T04:35:39.963Z,20.60
2022-12-14T04:38:11.431Z,21.75
2022-12-14T04:40:44.209Z,21.40
2022-12-14T04:43:15.512Z,21.80
2022-12-14T04:45:53.973Z,24.00
2022-12-14T04:48:52.240Z,26.35
2022-12-14T04:51:50.960Z,31.48
2022-12-14T04:54:39.960Z,30.40
2022-12-14T04:57:18.977Z,28.47
2022-12-14T04:59:47.655Z,26.23
2022-12-14T05:02:52.682Z,26.92
2022-12-14T05:05:27.400Z,24.23
2022-12-14T05:08:10.349Z,24.05
2022-12-14T05:11:39.457Z,24.38
2022-12-14T05:13:55.218Z,23.48
2022-12-14T05:16:23.462Z,22.95
2022-12-14T05:18:51.117Z,22.02
2022-12-14T05:21:36.889Z,22.60
2022-12-14T05:24:04.444Z,22.60
2022-12-14T05:26:32.040Z,22.60
2022-12-14T05:28:59.355Z,21.52
2022-12-14T05:31:27.023Z,21.92
2022-12-14T05:33:54.304Z,21.48
2022-12-14T05:36:21.931Z,20.67
2022-12-14T05:38:49.241Z,22.08
2022-12-14T05:41:16.443Z,20.83
2022-12-14T05:43:43.732Z,20.60
2022-12-14T05:46:12.104Z,21.70
2022-12-14T05:48:39.643Z,20.50
2022-12-14T05:51:08.842Z,19.40
2022-12-14T05:53:36.615Z,20.95
2022-12-14T05:56:05.760Z,21.20
2022-12-14T05:58:34.787Z,22.83
2022-12-14T06:01:09.149Z,21.77
2022-12-14T06:03:38.900Z,20.00
2022-12-14T06:06:09.445Z,20.80
2022-12-14T06:08:39.518Z,20.73
2022-12-14T06:11:11.970Z,21.27
2022-12-14T06:13:40.037Z,21.88
2022-12-14T06:16:26.592Z,21.25
2022-12-14T06:18:58.826Z,20.40
2022-12-14T06:21:29.140Z,20.30
2022-12-14T06:23:56.975Z,21.13
2022-12-14T06:26:25.276Z,22.08
2022-12-14T06:28:52.943Z,22.38
2022-12-14T06:31:22.603Z,21.63
2022-12-14T06:33:50.453Z,20.23
2022-12-14T06:36:24.054Z,22.00
2022-12-14T06:38:51.929Z,22.67
2022-12-14T06:41:20.308Z,22.75
2022-12-14T06:43:53.278Z,21.42
2022-12-14T06:46:24.706Z,23.00
2022-12-14T06:48:53.522Z,21.85
2022-12-14T06:51:22.716Z,22.48
2022-12-14T06:53:51.911Z,22.10
2022-12-14T06:56:20.398Z,24.65
2022-12-14T06:58:48.232Z,22.98
2022-12-14T07:01:21.221Z,23.85
2022-12-14T07:03:50.956Z,23.52
2022-12-14T07:06:18.194Z,24.08
2022-12-14T07:08:45.937Z,23.67
2022-12-14T07:11:15.260Z,23.40
2022-12-14T07:13:42.771Z,23.65
2022-12-14T07:16:16.390Z,24.45
2022-12-14T07:18:44.035Z,22.27
2022-12-14T07:21:13.733Z,23.35
2022-12-14T07:23:42.527Z,22.50
2022-12-14T07:26:13.272Z,27.48
2022-12-14T07:28:41.185Z,25.65
2022-12-14T07:31:12.339Z,23.83
2022-12-14T07:33:39.687Z,24.23
2022-12-14T07:36:26.220Z,23.15
2022-12-14T07:38:55.652Z,24.08
2022-12-14T07:41:25.746Z,24.50
2022-12-14T07:43:54.565Z,22.40
2022-12-14T07:46:24.213Z,23.75
2022-12-14T07:48:56.810Z,24.85
2022-12-14T07:51:26.542Z,23.27
2022-12-14T07:53:54.720Z,24.83
2022-12-14T07:56:25.099Z,25.40
2022-12-14T07:58:54.183Z,24.20
2022-12-14T08:01:23.702Z,23.87
2022-12-14T08:03:52.280Z,24.85
2022-12-14T08:06:20.916Z,24.33
2022-12-14T08:08:49.288Z,25.42
2022-12-14T08:11:16.867Z,26.25
2022-12-14T08:13:44.325Z,25.63
2022-12-14T08:16:14.105Z,26.63
2022-12-14T08:18:42.421Z,24.88
2022-12-14T08:21:11.011Z,25.20
2022-12-14T08:23:39.051Z,24.38
2022-12-14T08:26:06.538Z,24.48
2022-12-14T08:28:35.411Z,25.85
2022-12-14T08:31:08.479Z,24.35
2022-12-14T08:33:36.954Z,24.90
2022-12-14T08:36:27.869Z,25.10
2022-12-14T08:38:56.791Z,23.92
2022-12-14T08:41:25.141Z,24.73
2022-12-14T08:43:57.220Z,23.63
2022-12-14T08:46:25.998Z,24.48
2022-12-14T08:48:55.073Z,24.65
2022-12-14T08:51:23.574Z,24.52
2022-12-14T08:53:51.664Z,24.42
2022-12-14T08:56:21.455Z,24.38
2022-12-14T08:58:49.218Z,23.77
2022-12-14T09:01:34.049Z,24.30
2022-12-14T09:04:04.935Z,22.85
2022-12-14T09:06:35.015Z,23.85
2022-12-14T09:11:29.336Z,22.83
2022-12-14T09:13:56.848Z,23.00
2022-12-14T09:16:28.612Z,23.48
2022-12-14T09:18:56.075Z,22.90
2022-12-14T09:21:24.059Z,22.92
2022-12-14T09:23:57.278Z,22.90
2022-12-14T09:26:26.597Z,23.45
2022-12-14T09:28:56.360Z,23.35
2022-12-14T09:31:26.216Z,23.05
2022-12-14T09:36:27.690Z,21.70
2022-12-14T09:38:56.677Z,22.52
2022-12-14T09:41:33.005Z,22.97
2022-12-14T09:44:17.920Z,23.45
2022-12-14T09:46:54.896Z,22.15
2022-12-14T09:49:25.692Z,22.02
2022-12-14T09:51:57.395Z,22.77
2022-12-14T09:54:31.005Z,22.23
2022-12-14T09:57:01.761Z,21.52
2022-12-14T09:59:31.868Z,21.98
2022-12-14T10:02:32.364Z,23.13
2022-12-14T10:05:25.058Z,21.20
2022-12-14T10:08:18.377Z,22.73
2022-12-14T10:10:51.564Z,22.05
2022-12-14T10:13:29.394Z,21.67
2022-12-14T10:16:27.200Z,22.35
2022-12-14T10:19:17.326Z,24.17
2022-12-14T10:21:51.658Z,25.20
2022-12-14T10:24:42.897Z,23.60
2022-12-14T10:27:11.376Z,21.55
2022-12-14T10:29:47.955Z,23.63
2022-12-14T10:32:25.753Z,23.70
2022-12-14T10:34:53.289Z,23.65
2022-12-14T10:37:27.713Z,22.67
2022-12-14T10:40:17.581Z,22.95
2022-12-14T10:42:49.790Z,23.63
2022-12-14T10:45:41.450Z,23.02
2022-12-14T10:48:46.595Z,23.30
2022-12-14T10:51:22.195Z,24.30
2022-12-14T10:54:00.299Z,25.42
2022-12-14T10:56:33.532Z,24.30
2022-12-14T10:59:22.098Z,26.73
2022-12-14T11:02:04.117Z,23.23
2022-12-14T11:04:34.682Z,22.75
2022-12-14T11:07:10.291Z,23.08
2022-12-14T11:09:39.161Z,21.77
2022-12-14T11:12:32.797Z,23.98
2022-12-14T11:15:03.103Z,22.63
2022-12-14T11:17:39.797Z,23.27
2022-12-14T11:20:22.407Z,23.88
2022-12-14T11:22:51.450Z,23.08
2022-12-14T11:25:37.653Z,24.70
2022-12-14T11:28:37.804Z,24.42
2022-12-14T11:31:13.742Z,25.23
2022-12-14T11:33:45.734Z,25.35
2022-12-14T11:36:27.009Z,26.95
2022-12-14T11:38:59.476Z,32.75
2022-12-14T11:41:34.011Z,28.08
2022-12-14T11:44:07.060Z,26.70
2022-12-14T11:46:44.913Z,27.25
2022-12-14T11:49:28.722Z,27.35
2022-12-14T11:51:55.911Z,30.08
2022-12-14T11:54:23.300Z,29.45
2022-12-14T11:56:51.233Z,29.40
2022-12-14T11:59:19.344Z,26.92
2022-12-14T12:01:46.922Z,26.42
2022-12-14T12:04:15.752Z,28.00
2022-12-14T12:06:43.193Z,25.58
2022-12-14T12:09:28.057Z,26.08
2022-12-14T12:11:55.354Z,25.98
2022-12-14T12:14:29.874Z,25.08
2022-12-14T12:16:57.827Z,26.42
2022-12-14T12:19:30.637Z,24.20
2022-12-14T12:22:01.077Z,25.15
2022-12-14T12:25:08.371Z,37.17
2022-12-14T12:27:33.070Z,24.95
2022-12-14T12:30:07.468Z,27.02
2022-12-14T12:32:44.043Z,27.35
2022-12-14T12:35:50.111Z,28.83
2022-12-14T12:38:23.223Z,27.42
2022-12-14T12:40:56.323Z,26.30
2022-12-14T12:43:32.218Z,26.60
2022-12-14T12:46:02.795Z,27.13
2022-12-14T12:48:39.801Z,27.65
2022-12-14T12:51:17.182Z,26.70
2022-12-14T12:53:46.086Z,28.45
2022-12-14T12:56:16.940Z,29.38
2022-12-14T12:58:50.623Z,28.02
2022-12-14T13:01:47.922Z,26.58
2022-12-14T13:04:37.461Z,25.20
2022-12-14T13:07:23.007Z,24.67
2022-12-14T13:09:55.178Z,24.98
2022-12-14T13:12:44.019Z,25.10
2022-12-14T13:15:37.699Z,26.65
2022-12-14T13:18:49.363Z,27.77
2022-12-14T13:21:28.477Z,26.33
2022-12-14T13:23:55.996Z,25.63
2022-12-14T13:26:57.872Z,23.02
2022-12-14T13:29:43.636Z,24.33
2022-12-14T13:32:33.835Z,25.63
2022-12-14T13:35:29.239Z,27.15
2022-12-14T13:38:08.638Z,26.63
2022-12-14T13:40:38.964Z,30.10
2022-12-14T13:43:29.667Z,28.85
2022-12-14T13:46:04.703Z,25.50
2022-12-14T13:48:37.334Z,25.80
2022-12-14T13:51:06.577Z,25.80
2022-12-14T13:53:58.838Z,27.83
2022-12-14T13:56:33.596Z,26.67
2022-12-14T13:59:04.111Z,26.55
2022-12-14T14:01:40.620Z,24.58
2022-12-14T14:04:11.043Z,26.10
2022-12-14T14:06:40.802Z,25.52
2022-12-14T14:09:26.474Z,26.42
2022-12-14T14:12:19.551Z,25.88
2022-12-14T14:14:58.021Z,24.05
2022-12-14T14:17:37.354Z,24.50
2022-12-14T14:20:33.799Z,26.42
2022-12-14T14:23:16.731Z,25.45
2022-12-14T14:25:50.177Z,26.00
2022-12-14T14:28:22.998Z,25.98
2022-12-14T14:30:59.859Z,25.58
2022-12-14T14:33:46.062Z,25.33
2022-12-14T14:36:41.123Z,25.20
2022-12-14T14:39:55.447Z,23.98
2022-12-14T14:42:21.892Z,23.92
2022-12-14T14:44:55.018Z,26.15
2022-12-14T14:47:28.619Z,26.05
2022-12-14T14:50:02.322Z,27.40
2022-12-14T14:52:41.744Z,26.00
2022-12-14T14:55:52.066Z,28.00
2022-12-14T14:58:35.840Z,25.05
2022-12-14T15:01:06.445Z,26.48
2022-12-14T15:03:53.463Z,26.30
2022-12-14T15:06:27.757Z,25.00
2022-12-14T15:09:10.998Z,26.33
2022-12-14T15:11:53.315Z,26.65
2022-12-14T15:14:53.370Z,26.90
2022-12-14T15:17:23.461Z,26.35
2022-12-14T15:22:23.809Z,24.30
2022-12-14T15:24:53.682Z,23.58
2022-12-14T15:27:27.598Z,25.13
2022-12-14T15:30:14.471Z,25.73
2022-12-14T15:32:47.613Z,25.55
2022-12-14T15:35:23.457Z,27.35
2022-12-14T15:37:58.008Z,26.33
2022-12-14T15:40:30.229Z,24.90
2022-12-14T15:43:00.002Z,25.83
2022-12-14T15:45:34.842Z,25.85
2022-12-14T15:48:15.247Z,24.55
2022-12-14T15:50:46.189Z,23.77
2022-12-14T15:53:18.049Z,22.13
2022-12-14T15:55:50.018Z,22.58
2022-12-14T15:58:32.570Z,22.20
2022-12-14T16:01:17.779Z,22.33
2022-12-14T16:03:48.546Z,22.65
2022-12-14T16:06:17.404Z,21.38
2022-12-14T16:08:50.385Z,22.55
2022-12-14T16:11:24.959Z,22.35
2022-12-14T16:13:52.527Z,22.35
2022-12-14T16:16:19.926Z,23.80
2022-12-14T16:18:51.297Z,22.40
2022-12-14T16:21:37.113Z,21.90
2022-12-14T16:24:23.408Z,21.88
2022-12-14T16:26:59.121Z,22.80
2022-12-14T16:29:31.594Z,23.75
2022-12-14T16:32:07.128Z,21.58
2022-12-14T16:34:34.463Z,22.10
2022-12-14T16:39:52.529Z,23.67
2022-12-14T16:42:22.632Z,22.90
2022-12-14T16:44:53.796Z,21.48
2022-12-14T16:47:21.491Z,21.70
2022-12-14T16:50:00.336Z,21.73
2022-12-14T16:55:26.369Z,22.52
2022-12-14T16:57:56.104Z,22.23
2022-12-14T17:00:23.336Z,23.38
2022-12-14T17:03:18.679Z,22.95
2022-12-14T17:05:52.327Z,23.95
2022-12-14T17:08:19.722Z,22.02
2022-12-14T17:10:47.178Z,22.70
2022-12-14T17:13:14.485Z,21.77
2022-12-14T17:16:05.842Z,22.75
2022-12-14T17:18:37.739Z,23.33
2022-12-14T17:21:05.792Z,22.50
2022-12-14T17:23:35.375Z,22.52
2022-12-14T17:26:02.685Z,22.30
2022-12-14T17:28:31.481Z,22.02
2022-12-14T17:31:01.653Z,22.33
2022-12-14T17:33:30.187Z,23.60
2022-12-14T17:35:57.793Z,22.05
2022-12-14T17:38:25.109Z,23.15
2022-12-14T17:40:53.827Z,23.80
2022-12-14T17:43:25.102Z,22.73
2022-12-14T17:45:53.117Z,24.02
2022-12-14T17:48:20.970Z,24.38
2022-12-14T17:50:49.933Z,24.40
2022-12-14T17:53:21.720Z,24.60
2022-12-14T17:55:48.913Z,23.73
2022-12-14T17:58:16.886Z,24.05
2022-12-14T18:01:03.453Z,23.13
2022-12-14T18:03:33.163Z,23.20
2022-12-14T18:06:02.267Z,23.63
2022-12-14T18:08:29.626Z,23.70
2022-12-14T18:11:00.008Z,24.58
2022-12-14T18:13:28.678Z,24.10
2022-12-14T18:15:56.479Z,22.75
2022-12-14T18:18:27.523Z,23.02
2022-12-14T18:21:00.470Z,22.92
2022-12-14T18:23:29.845Z,21.85
2022-12-14T18:25:59.117Z,24.83
2022-12-14T18:28:26.594Z,24.52
2022-12-14T18:30:57.297Z,23.17
2022-12-14T18:33:27.644Z,23.83
2022-12-14T18:35:56.499Z,23.27
2022-12-14T18:38:24.637Z,21.58
2022-12-14T18:40:53.837Z,22.90
2022-12-14T18:43:23.951Z,23.33
2022-12-14T18:45:53.102Z,20.98
2022-12-14T18:48:21.466Z,23.92
2022-12-14T18:50:49.526Z,23.23
2022-12-14T18:53:19.834Z,21.65
2022-12-14T18:55:48.093Z,21.67
2022-12-14T18:58:24.121Z,21.95
2022-12-14T19:00:54.610Z,22.30
2022-12-14T19:03:23.096Z,22.30
2022-12-14T19:05:50.541Z,21.50
2022-12-14T19:08:17.984Z,22.48
2022-12-14T19:10:48.058Z,21.83
2022-12-14T19:15:52.329Z,21.90
2022-12-14T19:18:19.636Z,23.00
2022-12-14T19:20:49.519Z,21.50
2022-12-14T19:23:19.344Z,23.02
2022-12-14T19:25:47.195Z,24.02
2022-12-14T19:28:31.462Z,22.73
2022-12-14T19:31:01.172Z,26.02
2022-12-14T19:33:29.850Z,23.75
2022-12-14T19:35:57.664Z,22.63
2022-12-14T19:38:24.966Z,22.73
2022-12-14T19:41:01.094Z,22.48
2022-12-14T19:43:29.838Z,21.58
2022-12-14T19:45:57.513Z,22.25
2022-12-14T19:48:24.759Z,21.42
2022-12-14T19:50:52.168Z,22.13
2022-12-14T19:53:23.771Z,21.33
2022-12-14T19:55:52.592Z,21.05
2022-12-14T19:58:22.037Z,21.90
2022-12-14T20:00:50.594Z,20.90
2022-12-14T20:03:18.348Z,22.83
2022-12-14T20:05:53.605Z,23.17
2022-12-14T20:08:21.482Z,23.20
2022-12-14T20:10:49.264Z,22.73
2022-12-14T20:13:16.501Z,23.17
2022-12-14T20:15:58.357Z,22.30
2022-12-14T20:18:26.460Z,23.60
2022-12-14T20:20:53.833Z,21.67
2022-12-14T20:23:22.041Z,21.17
2022-12-14T20:25:49.334Z,19.73
2022-12-14T20:28:16.691Z,21.52
2022-12-14T20:30:45.279Z,22.75
2022-12-14T20:33:13.108Z,21.67
2022-12-14T20:35:40.349Z,20.48
2022-12-14T20:38:07.879Z,21.48
2022-12-14T20:40:38.808Z,19.38
2022-12-14T20:43:07.276Z,21.65
2022-12-14T20:45:43.945Z,21.42
2022-12-14T20:48:11.387Z,23.13
2022-12-14T20:50:40.364Z,23.48
2022-12-14T20:53:07.939Z,22.85
2022-12-14T20:55:35.637Z,21.48
2022-12-14T20:58:02.901Z,24.13
2022-12-14T21:00:30.453Z,23.42
2022-12-14T21:02:58.070Z,22.67
2022-12-14T21:05:25.586Z,22.40
2022-12-14T21:07:53.018Z,23.52
2022-12-14T21:10:20.288Z,22.95
2022-12-14T21:12:48.640Z,22.30
2022-12-14T21:15:16.114Z,23.90
2022-12-14T21:17:46.327Z,23.50
2022-12-14T21:20:13.682Z,22.65
2022-12-14T21:22:41.023Z,22.98
2022-12-14T21:25:08.505Z,22.60
2022-12-14T21:27:40.770Z,22.00
2022-12-14T21:30:10.175Z,22.23
2022-12-14T21:32:38.422Z,22.77
2022-12-14T21:35:06.294Z,22.40
2022-12-14T21:37:33.701Z,21.98
2022-12-14T21:40:03.649Z,23.17
2022-12-14T21:44:57.981Z,23.48
2022-12-14T21:47:27.261Z,22.85
2022-12-14T21:49:54.923Z,22.95
2022-12-14T21:52:24.992Z,23.60
2022-12-14T21:57:40.643Z,23.15
2022-12-14T22:00:09.770Z,22.02
2022-12-14T22:02:39.898Z,22.83
2022-12-14T22:05:07.639Z,22.45
2022-12-14T22:07:35.070Z,21.80
2022-12-14T22:10:02.505Z,24.88
2022-12-14T22:12:29.804Z,23.50
2022-12-14T22:14:57.190Z,22.58
2022-12-14T22:17:24.425Z,21.38
2022-12-14T22:19:54.234Z,22.30
2022-12-14T22:22:21.534Z,23.13
2022-12-14T22:24:49.888Z,22.77
2022-12-14T22:27:17.734Z,22.75
2022-12-14T22:29:45.037Z,23.42
2022-12-14T22:32:12.950Z,22.98
2022-12-14T22:34:40.763Z,23.45
2022-12-14T22:37:08.444Z,23.05
2022-12-14T22:39:36.007Z,22.98
2022-12-14T22:42:03.353Z,23.40
2022-12-14T22:44:30.824Z,25.27
2022-12-14T22:46:58.314Z,23.30
2022-12-14T22:49:25.652Z,24.40
2022-12-14T22:51:53.071Z,24.38
2022-12-14T22:54:25.448Z,23.90
2022-12-14T22:57:04.921Z,25.52
2022-12-14T22:59:45.502Z,24.45
2022-12-14T23:02:13.086Z,22.63
2022-12-14T23:04:40.595Z,24.20
2022-12-14T23:07:08.020Z,23.40
2022-12-14T23:09:53.873Z,24.55
2022-12-14T23:12:39.783Z,23.02
2022-12-14T23:15:25.622Z,23.77
2022-12-14T23:18:20.099Z,24.40
2022-12-14T23:21:06.094Z,24.45
2022-12-14T23:23:51.851Z,24.50
2022-12-14T23:26:37.642Z,24.30
2022-12-14T23:29:23.576Z,23.90
2022-12-14T23:32:09.438Z,23.15
2022-12-14T23:34:55.240Z,23.23
2022-12-14T23:37:41.378Z,24.85
2022-12-14T23:40:27.765Z,23.52
2022-12-14T23:43:13.587Z,23.27
2022-12-14T23:46:00.228Z,24.02
2022-12-14T23:48:46.706Z,23.63
2022-12-14T23:51:32.588Z,23.45
2022-12-14T23:54:18.315Z,25.85
2022-12-14T23:57:04.207Z,24.38
2022-12-14T23:59:50.214Z,25.30
